sensor_id;sensor_type;location;lat;lon;timestamp;P1;durP1;ratioP1;P2;durP2;ratioP2
50695;SDS011;36665;51.786;21.594;2023-04-07T00:07:22;56.70;;;25.30;;
50695;SDS011;36665;51.786;21.594;2023-04-07T00:15:45;38.80;;;21.40;;
50695;SDS011;36665;51.786;21.594;2023-04-07T00:24:08;38.70;;;21.30;;
50695;SDS011;36665;51.786;21.594;2023-04-07T00:32:32;49.10;;;23.00;;
50695;SDS011;36665;51.786;21.594;2023-04-07T00:40:57;49.60;;;22.70;;
50695;SDS011;36665;51.786;21.594;2023-04-07T00:49:21;40.40;;;21.30;;
50695;SDS011;36665;51.786;21.594;2023-04-07T00:57:44;37.50;;;19.60;;
50695;SDS011;36665;51.786;21.594;2023-04-07T01:06:09;39.60;;;20.30;;
50695;SDS011;36665;51.786;21.594;2023-04-07T01:14:39;37.70;;;20.80;;
50695;SDS011;36665;51.786;21.594;2023-04-07T01:32:25;57.80;;;29.20;;
50695;SDS011;36665;51.786;21.594;2023-04-07T01:40:49;45.70;;;28.50;;
50695;SDS011;36665;51.786;21.594;2023-04-07T01:49:14;44.30;;;23.70;;
50695;SDS011;36665;51.786;21.594;2023-04-07T01:57:38;48.60;;;27.60;;
50695;SDS011;36665;51.786;21.594;2023-04-07T02:06:08;65.90;;;33.40;;
50695;SDS011;36665;51.786;21.594;2023-04-07T02:14:37;51.00;;;26.20;;
50695;SDS011;36665;51.786;21.594;2023-04-07T02:23:03;44.50;;;24.40;;
50695;SDS011;36665;51.786;21.594;2023-04-07T02:31:32;43.50;;;24.70;;
50695;SDS011;36665;51.786;21.594;2023-04-07T02:39:55;37.10;;;23.30;;
50695;SDS011;36665;51.786;21.594;2023-04-07T02:48:18;40.00;;;22.90;;
50695;SDS011;36665;51.786;21.594;2023-04-07T02:56:41;37.80;;;22.20;;
50695;SDS011;36665;51.786;21.594;2023-04-07T03:05:05;38.10;;;21.70;;
50695;SDS011;36665;51.786;21.594;2023-04-07T03:13:28;40.10;;;24.30;;
50695;SDS011;36665;51.786;21.594;2023-04-07T03:21:52;42.40;;;23.10;;
50695;SDS011;36665;51.786;21.594;2023-04-07T03:30:16;40.80;;;22.80;;
50695;SDS011;36665;51.786;21.594;2023-04-07T03:38:40;41.50;;;24.20;;
50695;SDS011;36665;51.786;21.594;2023-04-07T03:47:03;41.90;;;23.50;;
50695;SDS011;36665;51.786;21.594;2023-04-07T03:55:28;44.70;;;23.40;;
50695;SDS011;36665;51.786;21.594;2023-04-07T04:03:55;41.10;;;23.70;;
50695;SDS011;36665;51.786;21.594;2023-04-07T04:12:24;44.30;;;27.30;;
50695;SDS011;36665;51.786;21.594;2023-04-07T04:20:58;40.20;;;21.40;;
50695;SDS011;36665;51.786;21.594;2023-04-07T04:29:21;31.60;;;21.10;;
50695;SDS011;36665;51.786;21.594;2023-04-07T04:37:45;36.70;;;21.60;;
50695;SDS011;36665;51.786;21.594;2023-04-07T04:46:08;42.20;;;26.40;;
50695;SDS011;36665;51.786;21.594;2023-04-07T04:54:35;36.10;;;22.70;;
50695;SDS011;36665;51.786;21.594;2023-04-07T05:02:58;42.00;;;24.50;;
50695;SDS011;36665;51.786;21.594;2023-04-07T05:11:22;30.40;;;18.90;;
50695;SDS011;36665;51.786;21.594;2023-04-07T05:19:47;33.40;;;20.60;;
50695;SDS011;36665;51.786;21.594;2023-04-07T05:28:18;33.00;;;19.50;;
50695;SDS011;36665;51.786;21.594;2023-04-07T05:36:41;64.70;;;37.90;;
50695;SDS011;36665;51.786;21.594;2023-04-07T05:45:05;28.50;;;18.20;;
50695;SDS011;36665;51.786;21.594;2023-04-07T05:53:32;23.30;;;15.90;;
50695;SDS011;36665;51.786;21.594;2023-04-07T06:01:56;27.60;;;17.80;;
50695;SDS011;36665;51.786;21.594;2023-04-07T06:10:20;32.60;;;19.00;;
50695;SDS011;36665;51.786;21.594;2023-04-07T06:18:43;25.90;;;16.40;;
50695;SDS011;36665;51.786;21.594;2023-04-07T06:27:07;37.50;;;21.30;;
50695;SDS011;36665;51.786;21.594;2023-04-07T06:35:30;28.50;;;18.90;;
50695;SDS011;36665;51.786;21.594;2023-04-07T06:43:53;26.50;;;15.00;;
50695;SDS011;36665;51.786;21.594;2023-04-07T06:52:17;35.50;;;17.70;;
50695;SDS011;36665;51.786;21.594;2023-04-07T07:00:40;27.90;;;16.90;;
50695;SDS011;36665;51.786;21.594;2023-04-07T07:09:03;29.70;;;17.60;;
50695;SDS011;36665;51.786;21.594;2023-04-07T07:17:26;27.90;;;16.50;;
50695;SDS011;36665;51.786;21.594;2023-04-07T07:25:49;20.80;;;14.70;;
50695;SDS011;36665;51.786;21.594;2023-04-07T07:34:12;24.80;;;15.00;;
50695;SDS011;36665;51.786;21.594;2023-04-07T07:42:35;20.90;;;14.70;;
50695;SDS011;36665;51.786;21.594;2023-04-07T07:50:58;24.30;;;13.80;;
50695;SDS011;36665;51.786;21.594;2023-04-07T07:59:21;20.00;;;13.10;;
50695;SDS011;36665;51.786;21.594;2023-04-07T08:07:44;71.60;;;45.10;;
50695;SDS011;36665;51.786;21.594;2023-04-07T08:16:08;20.00;;;13.90;;
50695;SDS011;36665;51.786;21.594;2023-04-07T08:24:31;53.40;;;29.90;;
50695;SDS011;36665;51.786;21.594;2023-04-07T08:32:54;18.60;;;13.10;;
50695;SDS011;36665;51.786;21.594;2023-04-07T08:41:30;18.30;;;12.00;;
50695;SDS011;36665;51.786;21.594;2023-04-07T08:50:03;15.20;;;10.90;;
50695;SDS011;36665;51.786;21.594;2023-04-07T08:58:29;21.10;;;11.20;;
50695;SDS011;36665;51.786;21.594;2023-04-07T09:06:52;16.50;;;10.60;;
50695;SDS011;36665;51.786;21.594;2023-04-07T09:15:15;17.30;;;10.00;;
50695;SDS011;36665;51.786;21.594;2023-04-07T09:23:39;17.30;;;10.70;;
50695;SDS011;36665;51.786;21.594;2023-04-07T09:32:04;19.50;;;11.10;;
50695;SDS011;36665;51.786;21.594;2023-04-07T09:40:27;15.40;;;10.70;;
50695;SDS011;36665;51.786;21.594;2023-04-07T09:48:59;15.90;;;10.30;;
50695;SDS011;36665;51.786;21.594;2023-04-07T09:57:29;15.50;;;9.60;;
50695;SDS011;36665;51.786;21.594;2023-04-07T10:05:52;17.90;;;10.50;;
50695;SDS011;36665;51.786;21.594;2023-04-07T10:14:16;13.40;;;10.50;;
50695;SDS011;36665;51.786;21.594;2023-04-07T10:22:41;13.10;;;9.30;;
50695;SDS011;36665;51.786;21.594;2023-04-07T10:31:05;13.30;;;8.00;;
50695;SDS011;36665;51.786;21.594;2023-04-07T10:39:29;10.70;;;8.40;;
50695;SDS011;36665;51.786;21.594;2023-04-07T10:56:25;11.30;;;8.40;;
50695;SDS011;36665;51.786;21.594;2023-04-07T11:04:49;42.40;;;24.40;;
50695;SDS011;36665;51.786;21.594;2023-04-07T11:13:12;11.00;;;6.00;;
50695;SDS011;36665;51.786;21.594;2023-04-07T11:21:35;12.80;;;7.00;;
50695;SDS011;36665;51.786;21.594;2023-04-07T11:29:58;7.00;;;4.60;;
50695;SDS011;36665;51.786;21.594;2023-04-07T11:38:23;12.00;;;5.90;;
50695;SDS011;36665;51.786;21.594;2023-04-07T11:46:51;13.60;;;8.30;;
50695;SDS011;36665;51.786;21.594;2023-04-07T11:55:19;5.60;;;4.30;;
50695;SDS011;36665;51.786;21.594;2023-04-07T12:03:54;6.70;;;3.80;;
50695;SDS011;36665;51.786;21.594;2023-04-07T12:12:25;17.60;;;10.40;;
50695;SDS011;36665;51.786;21.594;2023-04-07T12:20:50;7.00;;;4.30;;
50695;SDS011;36665;51.786;21.594;2023-04-07T12:29:13;4.60;;;2.80;;
50695;SDS011;36665;51.786;21.594;2023-04-07T12:37:36;6.20;;;3.70;;
50695;SDS011;36665;51.786;21.594;2023-04-07T12:45:59;3.60;;;2.50;;
50695;SDS011;36665;51.786;21.594;2023-04-07T12:54:22;18.90;;;10.20;;
50695;SDS011;36665;51.786;21.594;2023-04-07T13:02:45;3.10;;;1.90;;
50695;SDS011;36665;51.786;21.594;2023-04-07T13:11:09;3.10;;;2.00;;
50695;SDS011;36665;51.786;21.594;2023-04-07T13:19:32;5.50;;;2.80;;
50695;SDS011;36665;51.786;21.594;2023-04-07T13:27:57;4.10;;;2.60;;
50695;SDS011;36665;51.786;21.594;2023-04-07T13:36:21;5.90;;;3.40;;
50695;SDS011;36665;51.786;21.594;2023-04-07T13:44:45;15.50;;;8.40;;
50695;SDS011;36665;51.786;21.594;2023-04-07T13:53:09;8.90;;;4.90;;
50695;SDS011;36665;51.786;21.594;2023-04-07T14:01:33;7.50;;;4.20;;
50695;SDS011;36665;51.786;21.594;2023-04-07T14:09:57;6.20;;;2.30;;
50695;SDS011;36665;51.786;21.594;2023-04-07T14:18:20;11.50;;;7.30;;
50695;SDS011;36665;51.786;21.594;2023-04-07T14:26:45;5.80;;;3.20;;
50695;SDS011;36665;51.786;21.594;2023-04-07T14:35:08;5.20;;;2.80;;
50695;SDS011;36665;51.786;21.594;2023-04-07T14:43:32;3.60;;;2.30;;
50695;SDS011;36665;51.786;21.594;2023-04-07T14:51:55;4.80;;;2.30;;
50695;SDS011;36665;51.786;21.594;2023-04-07T15:00:19;2.10;;;1.60;;
50695;SDS011;36665;51.786;21.594;2023-04-07T15:08:41;5.30;;;2.80;;
50695;SDS011;36665;51.786;21.594;2023-04-07T15:17:05;4.70;;;2.80;;
50695;SDS011;36665;51.786;21.594;2023-04-07T15:25:28;16.90;;;9.30;;
50695;SDS011;36665;51.786;21.594;2023-04-07T15:33:51;5.10;;;3.00;;
50695;SDS011;36665;51.786;21.594;2023-04-07T15:42:14;3.10;;;2.10;;
50695;SDS011;36665;51.786;21.594;2023-04-07T15:50:38;2.90;;;2.00;;
50695;SDS011;36665;51.786;21.594;2023-04-07T15:59:01;2.60;;;2.00;;
50695;SDS011;36665;51.786;21.594;2023-04-07T16:07:24;3.10;;;2.00;;
50695;SDS011;36665;51.786;21.594;2023-04-07T16:15:47;3.30;;;2.20;;
50695;SDS011;36665;51.786;21.594;2023-04-07T16:24:10;7.80;;;4.90;;
50695;SDS011;36665;51.786;21.594;2023-04-07T16:32:33;7.70;;;4.50;;
50695;SDS011;36665;51.786;21.594;2023-04-07T16:40:57;31.40;;;12.70;;
50695;SDS011;36665;51.786;21.594;2023-04-07T16:49:26;15.30;;;8.60;;
50695;SDS011;36665;51.786;21.594;2023-04-07T16:57:49;24.90;;;12.30;;
50695;SDS011;36665;51.786;21.594;2023-04-07T17:06:13;12.00;;;6.00;;
50695;SDS011;36665;51.786;21.594;2023-04-07T17:14:38;26.80;;;15.60;;
50695;SDS011;36665;51.786;21.594;2023-04-07T17:23:02;12.00;;;7.00;;
50695;SDS011;36665;51.786;21.594;2023-04-07T17:31:25;6.90;;;4.70;;
50695;SDS011;36665;51.786;21.594;2023-04-07T17:39:49;9.30;;;5.30;;
50695;SDS011;36665;51.786;21.594;2023-04-07T17:48:12;8.90;;;6.60;;
50695;SDS011;36665;51.786;21.594;2023-04-07T17:56:35;14.40;;;8.20;;
50695;SDS011;36665;51.786;21.594;2023-04-07T18:05:00;14.10;;;8.40;;
50695;SDS011;36665;51.786;21.594;2023-04-07T18:13:23;16.50;;;10.00;;
50695;SDS011;36665;51.786;21.594;2023-04-07T18:21:47;18.10;;;9.50;;
50695;SDS011;36665;51.786;21.594;2023-04-07T18:30:14;13.10;;;8.40;;
50695;SDS011;36665;51.786;21.594;2023-04-07T18:38:38;20.90;;;12.50;;
50695;SDS011;36665;51.786;21.594;2023-04-07T18:47:02;13.20;;;7.90;;
50695;SDS011;36665;51.786;21.594;2023-04-07T18:55:26;13.40;;;8.90;;
50695;SDS011;36665;51.786;21.594;2023-04-07T19:03:49;12.90;;;8.10;;
50695;SDS011;36665;51.786;21.594;2023-04-07T19:12:12;20.50;;;11.40;;
50695;SDS011;36665;51.786;21.594;2023-04-07T19:20:35;18.40;;;11.50;;
50695;SDS011;36665;51.786;21.594;2023-04-07T19:28:59;13.70;;;8.00;;
50695;SDS011;36665;51.786;21.594;2023-04-07T19:37:25;9.50;;;6.40;;
50695;SDS011;36665;51.786;21.594;2023-04-07T19:45:48;9.80;;;6.40;;
50695;SDS011;36665;51.786;21.594;2023-04-07T19:54:11;9.90;;;6.40;;
50695;SDS011;36665;51.786;21.594;2023-04-07T20:02:35;14.20;;;7.50;;
50695;SDS011;36665;51.786;21.594;2023-04-07T20:10:59;9.20;;;6.30;;
50695;SDS011;36665;51.786;21.594;2023-04-07T20:19:22;10.40;;;7.10;;
50695;SDS011;36665;51.786;21.594;2023-04-07T20:27:45;10.80;;;6.90;;
50695;SDS011;36665;51.786;21.594;2023-04-07T20:36:11;18.90;;;11.60;;
50695;SDS011;36665;51.786;21.594;2023-04-07T20:44:34;10.00;;;6.90;;
50695;SDS011;36665;51.786;21.594;2023-04-07T20:52:57;9.60;;;6.10;;
50695;SDS011;36665;51.786;21.594;2023-04-07T21:01:20;10.40;;;7.00;;
50695;SDS011;36665;51.786;21.594;2023-04-07T21:09:44;14.10;;;7.90;;
50695;SDS011;36665;51.786;21.594;2023-04-07T21:18:07;16.50;;;9.50;;
50695;SDS011;36665;51.786;21.594;2023-04-07T21:26:30;12.40;;;7.50;;
50695;SDS011;36665;51.786;21.594;2023-04-07T21:34:53;14.10;;;8.10;;
50695;SDS011;36665;51.786;21.594;2023-04-07T21:43:16;16.80;;;9.50;;
50695;SDS011;36665;51.786;21.594;2023-04-07T21:51:39;16.70;;;7.90;;
50695;SDS011;36665;51.786;21.594;2023-04-07T22:00:03;11.90;;;7.50;;
50695;SDS011;36665;51.786;21.594;2023-04-07T22:08:36;13.30;;;8.50;;
50695;SDS011;36665;51.786;21.594;2023-04-07T22:16:58;12.50;;;8.90;;
50695;SDS011;36665;51.786;21.594;2023-04-07T22:25:22;12.60;;;8.60;;
50695;SDS011;36665;51.786;21.594;2023-04-07T22:33:46;15.60;;;10.10;;
50695;SDS011;36665;51.786;21.594;2023-04-07T22:42:09;16.80;;;10.70;;
50695;SDS011;36665;51.786;21.594;2023-04-07T22:50:32;16.30;;;9.30;;
50695;SDS011;36665;51.786;21.594;2023-04-07T22:58:55;16.20;;;10.10;;
50695;SDS011;36665;51.786;21.594;2023-04-07T23:07:27;18.70;;;7.60;;
50695;SDS011;36665;51.786;21.594;2023-04-07T23:15:50;12.40;;;7.40;;
50695;SDS011;36665;51.786;21.594;2023-04-07T23:24:13;12.80;;;8.60;;
50695;SDS011;36665;51.786;21.594;2023-04-07T23:32:36;11.50;;;7.20;;
50695;SDS011;36665;51.786;21.594;2023-04-07T23:40:59;12.50;;;7.40;;
50695;SDS011;36665;51.786;21.594;2023-04-07T23:49:22;14.00;;;9.10;;
50695;SDS011;36665;51.786;21.594;2023-04-07T23:57:46;14.30;;;9.10;;
